sensor_id;sensor_type;location;lat;lon;timestamp;P1;durP1;ratioP1;P2;durP2;ratioP2
72369;SDS011;60343;-32.030;115.880;2022-12-19T00:01:24;4.78;;;0.80;;
72369;SDS011;60343;-32.030;115.880;2022-12-19T00:03:54;4.53;;;0.80;;
72369;SDS011;60343;-32.030;115.880;2022-12-19T00:06:23;3.58;;;0.60;;
72369;SDS011;60343;-32.030;115.880;2022-12-19T00:08:51;3.63;;;0.45;;
72369;SDS011;60343;-32.030;115.880;2022-12-19T00:11:20;4.38;;;0.50;;
72369;SDS011;60343;-32.030;115.880;2022-12-19T00:13:54;2.85;;;0.70;;
72369;SDS011;60343;-32.030;115.880;2022-12-19T00:16:23;6.65;;;0.70;;
72369;SDS011;60343;-32.030;115.880;2022-12-19T00:18:53;5.65;;;0.60;;
72369;SDS011;60343;-32.030;115.880;2022-12-19T00:21:22;4.85;;;0.40;;
72369;SDS011;60343;-32.030;115.880;2022-12-19T00:23:51;5.45;;;0.60;;
72369;SDS011;60343;-32.030;115.880;2022-12-19T00:26:20;1.85;;;0.30;;
72369;SDS011;60343;-32.030;115.880;2022-12-19T00:28:59;3.15;;;0.50;;
72369;SDS011;60343;-32.030;115.880;2022-12-19T00:31:34;3.47;;;0.55;;
72369;SDS011;60343;-32.030;115.880;2022-12-19T00:34:01;4.88;;;0.60;;
72369;SDS011;60343;-32.030;115.880;2022-12-19T00:36:30;3.30;;;0.35;;
72369;SDS011;60343;-32.030;115.880;2022-12-19T00:39:01;4.13;;;0.60;;
72369;SDS011;60343;-32.030;115.880;2022-12-19T00:41:35;4.32;;;0.52;;
72369;SDS011;60343;-32.030;115.880;2022-12-19T00:44:15;3.58;;;0.60;;
72369;SDS011;60343;-32.030;115.880;2022-12-19T00:46:43;2.92;;;0.40;;
72369;SDS011;60343;-32.030;115.880;2022-12-19T00:49:20;2.60;;;0.40;;
72369;SDS011;60343;-32.030;115.880;2022-12-19T00:51:53;4.13;;;0.47;;
72369;SDS011;60343;-32.030;115.880;2022-12-19T00:54:31;2.00;;;0.40;;
72369;SDS011;60343;-32.030;115.880;2022-12-19T00:57:04;7.63;;;0.57;;
72369;SDS011;60343;-32.030;115.880;2022-12-19T00:59:32;4.15;;;0.57;;
72369;SDS011;60343;-32.030;115.880;2022-12-19T01:02:02;4.47;;;0.65;;
72369;SDS011;60343;-32.030;115.880;2022-12-19T01:04:32;2.75;;;0.50;;
72369;SDS011;60343;-32.030;115.880;2022-12-19T01:07:09;4.50;;;0.50;;
72369;SDS011;60343;-32.030;115.880;2022-12-19T01:09:39;4.10;;;0.40;;
72369;SDS011;60343;-32.030;115.880;2022-12-19T01:12:14;4.40;;;0.57;;
72369;SDS011;60343;-32.030;115.880;2022-12-19T01:14:45;6.13;;;0.60;;
72369;SDS011;60343;-32.030;115.880;2022-12-19T01:17:19;4.28;;;0.50;;
72369;SDS011;60343;-32.030;115.880;2022-12-19T01:19:47;3.80;;;0.35;;
72369;SDS011;60343;-32.030;115.880;2022-12-19T01:22:15;3.30;;;0.50;;
72369;SDS011;60343;-32.030;115.880;2022-12-19T01:24:45;4.53;;;0.65;;
72369;SDS011;60343;-32.030;115.880;2022-12-19T01:27:18;3.95;;;0.40;;
72369;SDS011;60343;-32.030;115.880;2022-12-19T01:29:46;6.47;;;0.60;;
72369;SDS011;60343;-32.030;115.880;2022-12-19T01:32:14;3.20;;;0.40;;
72369;SDS011;60343;-32.030;115.880;2022-12-19T01:34:47;3.35;;;0.40;;
72369;SDS011;60343;-32.030;115.880;2022-12-19T01:37:17;4.00;;;0.40;;
72369;SDS011;60343;-32.030;115.880;2022-12-19T01:39:48;1.77;;;0.40;;
72369;SDS011;60343;-32.030;115.880;2022-12-19T01:42:24;3.53;;;0.60;;
72369;SDS011;60343;-32.030;115.880;2022-12-19T01:48:01;2.78;;;0.50;;
72369;SDS011;60343;-32.030;115.880;2022-12-19T01:50:40;2.83;;;0.50;;
72369;SDS011;60343;-32.030;115.880;2022-12-19T01:53:13;2.83;;;0.63;;
72369;SDS011;60343;-32.030;115.880;2022-12-19T01:55:42;4.70;;;0.50;;
72369;SDS011;60343;-32.030;115.880;2022-12-19T01:58:16;2.00;;;0.30;;
72369;SDS011;60343;-32.030;115.880;2022-12-19T02:00:44;6.40;;;0.57;;
72369;SDS011;60343;-32.030;115.880;2022-12-19T02:03:13;3.05;;;0.47;;
72369;SDS011;60343;-32.030;115.880;2022-12-19T02:05:45;5.20;;;0.50;;
72369;SDS011;60343;-32.030;115.880;2022-12-19T02:08:13;2.85;;;0.40;;
72369;SDS011;60343;-32.030;115.880;2022-12-19T02:10:41;4.57;;;0.43;;
72369;SDS011;60343;-32.030;115.880;2022-12-19T02:13:09;4.75;;;0.70;;
72369;SDS011;60343;-32.030;115.880;2022-12-19T02:15:43;4.43;;;0.40;;
72369;SDS011;60343;-32.030;115.880;2022-12-19T02:18:19;2.55;;;0.45;;
72369;SDS011;60343;-32.030;115.880;2022-12-19T02:21:01;2.92;;;0.52;;
72369;SDS011;60343;-32.030;115.880;2022-12-19T02:24:03;4.53;;;0.63;;
72369;SDS011;60343;-32.030;115.880;2022-12-19T02:35:34;4.20;;;0.35;;
72369;SDS011;60343;-32.030;115.880;2022-12-19T02:38:22;3.08;;;0.50;;
72369;SDS011;60343;-32.030;115.880;2022-12-19T02:40:57;3.20;;;0.38;;
72369;SDS011;60343;-32.030;115.880;2022-12-19T02:43:33;2.88;;;0.50;;
72369;SDS011;60343;-32.030;115.880;2022-12-19T02:46:11;2.25;;;0.40;;
72369;SDS011;60343;-32.030;115.880;2022-12-19T02:48:47;2.45;;;0.50;;
72369;SDS011;60343;-32.030;115.880;2022-12-19T02:51:15;4.40;;;0.45;;
72369;SDS011;60343;-32.030;115.880;2022-12-19T02:53:43;2.58;;;0.40;;
72369;SDS011;60343;-32.030;115.880;2022-12-19T02:56:18;3.15;;;0.50;;
72369;SDS011;60343;-32.030;115.880;2022-12-19T02:59:03;3.53;;;0.35;;
72369;SDS011;60343;-32.030;115.880;2022-12-19T03:01:43;2.38;;;0.40;;
72369;SDS011;60343;-32.030;115.880;2022-12-19T03:04:26;6.45;;;0.57;;
72369;SDS011;60343;-32.030;115.880;2022-12-19T03:07:07;2.67;;;0.40;;
72369;SDS011;60343;-32.030;115.880;2022-12-19T03:09:45;4.53;;;0.63;;
72369;SDS011;60343;-32.030;115.880;2022-12-19T03:12:24;1.60;;;0.40;;
72369;SDS011;60343;-32.030;115.880;2022-12-19T03:14:56;4.47;;;0.50;;
72369;SDS011;60343;-32.030;115.880;2022-12-19T03:17:25;1.92;;;0.30;;
72369;SDS011;60343;-32.030;115.880;2022-12-19T03:20:02;5.78;;;0.60;;
72369;SDS011;60343;-32.030;115.880;2022-12-19T03:22:36;3.20;;;0.40;;
72369;SDS011;60343;-32.030;115.880;2022-12-19T03:25:04;1.70;;;0.30;;
72369;SDS011;60343;-32.030;115.880;2022-12-19T03:27:32;2.67;;;0.50;;
72369;SDS011;60343;-32.030;115.880;2022-12-19T03:30:05;1.90;;;0.32;;
72369;SDS011;60343;-32.030;115.880;2022-12-19T03:32:35;3.30;;;0.30;;
72369;SDS011;60343;-32.030;115.880;2022-12-19T03:35:13;2.60;;;0.40;;
72369;SDS011;60343;-32.030;115.880;2022-12-19T03:37:47;1.95;;;0.32;;
72369;SDS011;60343;-32.030;115.880;2022-12-19T03:40:18;4.03;;;0.40;;
72369;SDS011;60343;-32.030;115.880;2022-12-19T03:42:51;2.30;;;0.40;;
72369;SDS011;60343;-32.030;115.880;2022-12-19T03:45:22;2.45;;;0.30;;
72369;SDS011;60343;-32.030;115.880;2022-12-19T03:48:04;8.43;;;0.45;;
72369;SDS011;60343;-32.030;115.880;2022-12-19T03:50:46;3.97;;;0.35;;
72369;SDS011;60343;-32.030;115.880;2022-12-19T03:53:26;2.15;;;0.35;;
72369;SDS011;60343;-32.030;115.880;2022-12-19T03:56:04;1.85;;;0.35;;
72369;SDS011;60343;-32.030;115.880;2022-12-19T03:58:46;3.53;;;0.43;;
72369;SDS011;60343;-32.030;115.880;2022-12-19T04:01:19;2.85;;;0.30;;
72369;SDS011;60343;-32.030;115.880;2022-12-19T04:03:51;2.45;;;0.30;;
72369;SDS011;60343;-32.030;115.880;2022-12-19T04:06:29;3.05;;;0.40;;
72369;SDS011;60343;-32.030;115.880;2022-12-19T04:09:04;3.00;;;0.38;;
72369;SDS011;60343;-32.030;115.880;2022-12-19T04:11:34;2.42;;;0.40;;
72369;SDS011;60343;-32.030;115.880;2022-12-19T04:14:07;2.55;;;0.30;;
72369;SDS011;60343;-32.030;115.880;2022-12-19T04:16:49;3.40;;;0.30;;
72369;SDS011;60343;-32.030;115.880;2022-12-19T04:19:25;2.80;;;0.30;;
72369;SDS011;60343;-32.030;115.880;2022-12-19T04:22:13;1.95;;;0.43;;
72369;SDS011;60343;-32.030;115.880;2022-12-19T04:24:46;2.72;;;0.30;;
72369;SDS011;60343;-32.030;115.880;2022-12-19T04:27:18;3.00;;;0.40;;
72369;SDS011;60343;-32.030;115.880;2022-12-19T04:29:49;2.15;;;0.50;;
72369;SDS011;60343;-32.030;115.880;2022-12-19T04:32:20;4.32;;;0.45;;
72369;SDS011;60343;-32.030;115.880;2022-12-19T04:34:50;1.75;;;0.30;;
72369;SDS011;60343;-32.030;115.880;2022-12-19T04:37:23;4.47;;;0.40;;
72369;SDS011;60343;-32.030;115.880;2022-12-19T04:39:53;5.72;;;0.47;;
72369;SDS011;60343;-32.030;115.880;2022-12-19T04:42:21;2.28;;;0.38;;
72369;SDS011;60343;-32.030;115.880;2022-12-19T04:44:51;3.58;;;0.30;;
72369;SDS011;60343;-32.030;115.880;2022-12-19T04:47:22;3.17;;;0.35;;
72369;SDS011;60343;-32.030;115.880;2022-12-19T04:49:49;1.70;;;0.30;;
72369;SDS011;60343;-32.030;115.880;2022-12-19T04:52:25;2.63;;;0.35;;
72369;SDS011;60343;-32.030;115.880;2022-12-19T04:55:02;2.60;;;0.30;;
72369;SDS011;60343;-32.030;115.880;2022-12-19T04:57:30;2.80;;;0.50;;
72369;SDS011;60343;-32.030;115.880;2022-12-19T05:00:00;2.55;;;0.40;;
72369;SDS011;60343;-32.030;115.880;2022-12-19T05:02:30;1.95;;;0.30;;
72369;SDS011;60343;-32.030;115.880;2022-12-19T05:05:02;2.38;;;0.38;;
72369;SDS011;60343;-32.030;115.880;2022-12-19T05:07:39;1.65;;;0.40;;
72369;SDS011;60343;-32.030;115.880;2022-12-19T05:10:07;2.85;;;0.73;;
72369;SDS011;60343;-32.030;115.880;2022-12-19T05:12:35;2.63;;;0.50;;
72369;SDS011;60343;-32.030;115.880;2022-12-19T05:15:02;3.03;;;0.50;;
72369;SDS011;60343;-32.030;115.880;2022-12-19T05:17:30;3.53;;;0.38;;
72369;SDS011;60343;-32.030;115.880;2022-12-19T05:20:01;3.30;;;0.50;;
72369;SDS011;60343;-32.030;115.880;2022-12-19T05:22:42;2.28;;;0.45;;
72369;SDS011;60343;-32.030;115.880;2022-12-19T05:25:15;3.60;;;0.38;;
72369;SDS011;60343;-32.030;115.880;2022-12-19T05:27:43;2.92;;;0.35;;
72369;SDS011;60343;-32.030;115.880;2022-12-19T05:30:11;2.60;;;0.40;;
72369;SDS011;60343;-32.030;115.880;2022-12-19T05:32:39;2.03;;;0.43;;
72369;SDS011;60343;-32.030;115.880;2022-12-19T05:35:07;2.25;;;0.43;;
72369;SDS011;60343;-32.030;115.880;2022-12-19T05:37:40;4.05;;;0.40;;
72369;SDS011;60343;-32.030;115.880;2022-12-19T05:40:08;2.00;;;0.40;;
72369;SDS011;60343;-32.030;115.880;2022-12-19T05:42:36;4.55;;;0.50;;
72369;SDS011;60343;-32.030;115.880;2022-12-19T05:45:04;2.17;;;0.40;;
72369;SDS011;60343;-32.030;115.880;2022-12-19T05:47:32;2.53;;;0.30;;
72369;SDS011;60343;-32.030;115.880;2022-12-19T05:50:00;1.50;;;0.30;;
72369;SDS011;60343;-32.030;115.880;2022-12-19T05:52:28;3.10;;;0.40;;
72369;SDS011;60343;-32.030;115.880;2022-12-19T05:55:01;1.42;;;0.30;;
72369;SDS011;60343;-32.030;115.880;2022-12-19T05:57:32;1.92;;;0.40;;
72369;SDS011;60343;-32.030;115.880;2022-12-19T06:00:02;2.45;;;0.38;;
72369;SDS011;60343;-32.030;115.880;2022-12-19T06:02:34;2.67;;;0.40;;
72369;SDS011;60343;-32.030;115.880;2022-12-19T06:05:01;2.60;;;0.50;;
72369;SDS011;60343;-32.030;115.880;2022-12-19T06:07:29;3.33;;;0.60;;
72369;SDS011;60343;-32.030;115.880;2022-12-19T06:10:02;3.05;;;0.45;;
72369;SDS011;60343;-32.030;115.880;2022-12-19T06:12:31;2.42;;;0.40;;
72369;SDS011;60343;-32.030;115.880;2022-12-19T06:14:59;1.55;;;0.40;;
72369;SDS011;60343;-32.030;115.880;2022-12-19T06:17:26;4.25;;;0.40;;
72369;SDS011;60343;-32.030;115.880;2022-12-19T06:19:54;2.67;;;0.40;;
72369;SDS011;60343;-32.030;115.880;2022-12-19T06:22:24;3.10;;;0.50;;
72369;SDS011;60343;-32.030;115.880;2022-12-19T06:24:55;2.67;;;0.47;;
72369;SDS011;60343;-32.030;115.880;2022-12-19T06:27:31;2.53;;;0.30;;
72369;SDS011;60343;-32.030;115.880;2022-12-19T06:30:05;3.47;;;0.40;;
72369;SDS011;60343;-32.030;115.880;2022-12-19T06:32:33;3.30;;;0.30;;
72369;SDS011;60343;-32.030;115.880;2022-12-19T06:35:01;2.03;;;0.30;;
72369;SDS011;60343;-32.030;115.880;2022-12-19T06:37:32;2.92;;;0.40;;
72369;SDS011;60343;-32.030;115.880;2022-12-19T06:40:08;1.95;;;0.30;;
72369;SDS011;60343;-32.030;115.880;2022-12-19T06:42:36;1.92;;;0.30;;
72369;SDS011;60343;-32.030;115.880;2022-12-19T06:45:10;2.28;;;0.40;;
72369;SDS011;60343;-32.030;115.880;2022-12-19T06:47:58;5.05;;;0.32;;
72369;SDS011;60343;-32.030;115.880;2022-12-19T06:50:29;3.58;;;0.50;;
72369;SDS011;60343;-32.030;115.880;2022-12-19T06:53:08;5.38;;;0.52;;
72369;SDS011;60343;-32.030;115.880;2022-12-19T06:55:47;1.42;;;0.30;;
72369;SDS011;60343;-32.030;115.880;2022-12-19T06:58:19;1.63;;;0.40;;
72369;SDS011;60343;-32.030;115.880;2022-12-19T07:00:47;2.05;;;0.50;;
72369;SDS011;60343;-32.030;115.880;2022-12-19T07:03:16;4.05;;;0.40;;
72369;SDS011;60343;-32.030;115.880;2022-12-19T07:05:47;2.92;;;0.40;;
72369;SDS011;60343;-32.030;115.880;2022-12-19T07:08:14;4.10;;;0.45;;
72369;SDS011;60343;-32.030;115.880;2022-12-19T07:10:48;4.55;;;0.40;;
72369;SDS011;60343;-32.030;115.880;2022-12-19T07:13:15;4.95;;;0.50;;
72369;SDS011;60343;-32.030;115.880;2022-12-19T07:15:43;2.70;;;0.40;;
72369;SDS011;60343;-32.030;115.880;2022-12-19T07:18:11;3.55;;;0.50;;
72369;SDS011;60343;-32.030;115.880;2022-12-19T07:20:39;1.98;;;0.40;;
72369;SDS011;60343;-32.030;115.880;2022-12-19T07:23:12;1.90;;;0.30;;
72369;SDS011;60343;-32.030;115.880;2022-12-19T07:25:50;4.00;;;0.40;;
72369;SDS011;60343;-32.030;115.880;2022-12-19T07:28:18;3.80;;;0.50;;
72369;SDS011;60343;-32.030;115.880;2022-12-19T07:30:45;3.97;;;0.40;;
72369;SDS011;60343;-32.030;115.880;2022-12-19T07:33:13;1.73;;;0.32;;
72369;SDS011;60343;-32.030;115.880;2022-12-19T07:35:44;1.55;;;0.30;;
72369;SDS011;60343;-32.030;115.880;2022-12-19T07:38:11;3.33;;;0.55;;
72369;SDS011;60343;-32.030;115.880;2022-12-19T07:40:39;4.55;;;0.50;;
72369;SDS011;60343;-32.030;115.880;2022-12-19T07:43:12;3.55;;;0.55;;
72369;SDS011;60343;-32.030;115.880;2022-12-19T07:45:40;4.82;;;0.50;;
72369;SDS011;60343;-32.030;115.880;2022-12-19T07:48:08;2.20;;;0.50;;
72369;SDS011;60343;-32.030;115.880;2022-12-19T07:50:36;2.60;;;0.45;;
72369;SDS011;60343;-32.030;115.880;2022-12-19T07:53:03;3.42;;;0.65;;
72369;SDS011;60343;-32.030;115.880;2022-12-19T07:55:31;3.13;;;0.40;;
72369;SDS011;60343;-32.030;115.880;2022-12-19T07:57:59;3.90;;;0.40;;
72369;SDS011;60343;-32.030;115.880;2022-12-19T08:00:32;1.38;;;0.30;;
72369;SDS011;60343;-32.030;115.880;2022-12-19T08:03:00;3.40;;;0.50;;
72369;SDS011;60343;-32.030;115.880;2022-12-19T08:05:28;3.33;;;0.60;;
72369;SDS011;60343;-32.030;115.880;2022-12-19T08:07:58;3.47;;;0.82;;
72369;SDS011;60343;-32.030;115.880;2022-12-19T08:10:26;3.30;;;0.43;;
72369;SDS011;60343;-32.030;115.880;2022-12-19T08:12:54;17.95;;;0.88;;
72369;SDS011;60343;-32.030;115.880;2022-12-19T08:15:21;5.75;;;0.85;;
72369;SDS011;60343;-32.030;115.880;2022-12-19T08:17:55;6.65;;;0.93;;
72369;SDS011;60343;-32.030;115.880;2022-12-19T08:20:22;3.75;;;0.60;;
72369;SDS011;60343;-32.030;115.880;2022-12-19T08:22:50;4.10;;;0.80;;
72369;SDS011;60343;-32.030;115.880;2022-12-19T08:25:18;4.70;;;0.65;;
72369;SDS011;60343;-32.030;115.880;2022-12-19T08:27:45;7.95;;;1.55;;
72369;SDS011;60343;-32.030;115.880;2022-12-19T08:30:13;3.55;;;0.52;;
72369;SDS011;60343;-32.030;115.880;2022-12-19T08:32:41;7.68;;;0.98;;
72369;SDS011;60343;-32.030;115.880;2022-12-19T08:35:14;7.75;;;1.00;;
72369;SDS011;60343;-32.030;115.880;2022-12-19T08:37:42;6.40;;;1.00;;
72369;SDS011;60343;-32.030;115.880;2022-12-19T08:40:10;7.95;;;0.80;;
72369;SDS011;60343;-32.030;115.880;2022-12-19T08:42:38;5.97;;;1.13;;
72369;SDS011;60343;-32.030;115.880;2022-12-19T08:45:06;9.32;;;0.75;;
72369;SDS011;60343;-32.030;115.880;2022-12-19T08:47:34;4.60;;;0.80;;
72369;SDS011;60343;-32.030;115.880;2022-12-19T08:50:02;10.15;;;0.82;;
72369;SDS011;60343;-32.030;115.880;2022-12-19T08:52:35;8.18;;;1.00;;
72369;SDS011;60343;-32.030;115.880;2022-12-19T08:55:03;5.95;;;1.05;;
72369;SDS011;60343;-32.030;115.880;2022-12-19T08:57:32;5.53;;;0.75;;
72369;SDS011;60343;-32.030;115.880;2022-12-19T09:00:00;6.18;;;0.75;;
72369;SDS011;60343;-32.030;115.880;2022-12-19T09:02:28;6.03;;;0.80;;
72369;SDS011;60343;-32.030;115.880;2022-12-19T09:04:55;5.20;;;0.75;;
72369;SDS011;60343;-32.030;115.880;2022-12-19T09:07:26;3.88;;;0.50;;
72369;SDS011;60343;-32.030;115.880;2022-12-19T09:09:59;5.00;;;0.70;;
72369;SDS011;60343;-32.030;115.880;2022-12-19T09:12:29;3.88;;;0.50;;
72369;SDS011;60343;-32.030;115.880;2022-12-19T09:14:57;4.78;;;0.45;;
72369;SDS011;60343;-32.030;115.880;2022-12-19T09:17:28;7.07;;;0.80;;
72369;SDS011;60343;-32.030;115.880;2022-12-19T09:19:56;4.13;;;0.45;;
72369;SDS011;60343;-32.030;115.880;2022-12-19T09:22:23;6.18;;;0.52;;
72369;SDS011;60343;-32.030;115.880;2022-12-19T09:24:51;4.25;;;0.57;;
72369;SDS011;60343;-32.030;115.880;2022-12-19T09:27:26;5.65;;;0.60;;
72369;SDS011;60343;-32.030;115.880;2022-12-19T09:29:54;3.08;;;0.45;;
72369;SDS011;60343;-32.030;115.880;2022-12-19T09:32:22;2.85;;;0.40;;
72369;SDS011;60343;-32.030;115.880;2022-12-19T09:34:50;4.57;;;0.52;;
72369;SDS011;60343;-32.030;115.880;2022-12-19T09:37:20;3.20;;;0.55;;
72369;SDS011;60343;-32.030;115.880;2022-12-19T09:39:48;4.78;;;0.60;;
72369;SDS011;60343;-32.030;115.880;2022-12-19T09:42:29;6.30;;;0.70;;
72369;SDS011;60343;-32.030;115.880;2022-12-19T09:45:19;2.97;;;0.47;;
72369;SDS011;60343;-32.030;115.880;2022-12-19T09:47:56;2.88;;;0.52;;
72369;SDS011;60343;-32.030;115.880;2022-12-19T09:50:32;5.22;;;0.57;;
72369;SDS011;60343;-32.030;115.880;2022-12-19T09:53:12;6.30;;;0.60;;
72369;SDS011;60343;-32.030;115.880;2022-12-19T09:55:44;6.03;;;0.73;;
72369;SDS011;60343;-32.030;115.880;2022-12-19T09:58:19;3.33;;;0.40;;
72369;SDS011;60343;-32.030;115.880;2022-12-19T10:00:56;3.30;;;0.60;;
72369;SDS011;60343;-32.030;115.880;2022-12-19T10:03:28;4.47;;;0.60;;
72369;SDS011;60343;-32.030;115.880;2022-12-19T10:06:00;4.35;;;0.57;;
72369;SDS011;60343;-32.030;115.880;2022-12-19T10:08:32;2.35;;;0.40;;
72369;SDS011;60343;-32.030;115.880;2022-12-19T10:11:05;3.17;;;0.60;;
72369;SDS011;60343;-32.030;115.880;2022-12-19T10:13:53;3.08;;;0.40;;
72369;SDS011;60343;-32.030;115.880;2022-12-19T10:16:35;4.18;;;0.65;;
72369;SDS011;60343;-32.030;115.880;2022-12-19T10:19:09;3.17;;;0.40;;
72369;SDS011;60343;-32.030;115.880;2022-12-19T10:21:46;3.00;;;0.40;;
72369;SDS011;60343;-32.030;115.880;2022-12-19T10:24:40;5.50;;;0.60;;
72369;SDS011;60343;-32.030;115.880;2022-12-19T10:27:23;2.10;;;0.40;;
72369;SDS011;60343;-32.030;115.880;2022-12-19T10:30:09;4.25;;;0.60;;
72369;SDS011;60343;-32.030;115.880;2022-12-19T10:32:41;2.53;;;0.32;;
72369;SDS011;60343;-32.030;115.880;2022-12-19T10:35:19;3.70;;;0.70;;
72369;SDS011;60343;-32.030;115.880;2022-12-19T10:37:51;3.75;;;0.55;;
72369;SDS011;60343;-32.030;115.880;2022-12-19T10:40:26;5.57;;;0.77;;
72369;SDS011;60343;-32.030;115.880;2022-12-19T10:43:02;4.18;;;0.60;;
72369;SDS011;60343;-32.030;115.880;2022-12-19T10:45:37;2.90;;;0.45;;
72369;SDS011;60343;-32.030;115.880;2022-12-19T10:48:09;5.85;;;0.70;;
72369;SDS011;60343;-32.030;115.880;2022-12-19T10:50:42;3.13;;;0.60;;
72369;SDS011;60343;-32.030;115.880;2022-12-19T10:53:10;3.97;;;0.50;;
72369;SDS011;60343;-32.030;115.880;2022-12-19T10:55:42;5.55;;;0.50;;
72369;SDS011;60343;-32.030;115.880;2022-12-19T10:58:21;5.40;;;0.65;;
72369;SDS011;60343;-32.030;115.880;2022-12-19T11:07:03;4.97;;;0.63;;
72369;SDS011;60343;-32.030;115.880;2022-12-19T11:09:43;3.50;;;0.60;;
72369;SDS011;60343;-32.030;115.880;2022-12-19T11:12:11;4.65;;;0.80;;
72369;SDS011;60343;-32.030;115.880;2022-12-19T11:14:53;3.13;;;0.60;;
72369;SDS011;60343;-32.030;115.880;2022-12-19T11:18:00;4.15;;;0.80;;
72369;SDS011;60343;-32.030;115.880;2022-12-19T11:20:38;6.82;;;1.17;;
72369;SDS011;60343;-32.030;115.880;2022-12-19T11:23:19;4.88;;;1.52;;
72369;SDS011;60343;-32.030;115.880;2022-12-19T11:26:00;5.38;;;1.60;;
72369;SDS011;60343;-32.030;115.880;2022-12-19T11:28:51;6.13;;;1.40;;
72369;SDS011;60343;-32.030;115.880;2022-12-19T11:31:27;3.47;;;1.00;;
72369;SDS011;60343;-32.030;115.880;2022-12-19T11:34:04;7.35;;;1.05;;
72369;SDS011;60343;-32.030;115.880;2022-12-19T11:36:51;5.13;;;1.20;;
72369;SDS011;60343;-32.030;115.880;2022-12-19T11:39:25;4.15;;;0.90;;
72369;SDS011;60343;-32.030;115.880;2022-12-19T11:42:00;3.03;;;0.80;;
72369;SDS011;60343;-32.030;115.880;2022-12-19T11:44:35;2.53;;;0.60;;
72369;SDS011;60343;-32.030;115.880;2022-12-19T11:47:11;5.82;;;0.90;;
72369;SDS011;60343;-32.030;115.880;2022-12-19T11:49:57;4.50;;;0.90;;
72369;SDS011;60343;-32.030;115.880;2022-12-19T11:52:39;6.18;;;0.90;;
72369;SDS011;60343;-32.030;115.880;2022-12-19T11:55:15;2.95;;;0.68;;
72369;SDS011;60343;-32.030;115.880;2022-12-19T11:57:46;4.13;;;0.70;;
72369;SDS011;60343;-32.030;115.880;2022-12-19T12:00:15;2.70;;;0.60;;
72369;SDS011;60343;-32.030;115.880;2022-12-19T12:02:58;5.82;;;0.50;;
72369;SDS011;60343;-32.030;115.880;2022-12-19T12:05:42;4.85;;;0.85;;
72369;SDS011;60343;-32.030;115.880;2022-12-19T12:11:13;5.10;;;0.90;;
72369;SDS011;60343;-32.030;115.880;2022-12-19T12:14:13;3.90;;;0.77;;
72369;SDS011;60343;-32.030;115.880;2022-12-19T12:16:46;5.63;;;0.63;;
72369;SDS011;60343;-32.030;115.880;2022-12-19T12:19:32;3.25;;;0.50;;
72369;SDS011;60343;-32.030;115.880;2022-12-19T12:22:14;5.75;;;0.60;;
72369;SDS011;60343;-32.030;115.880;2022-12-19T12:24:58;6.00;;;0.80;;
72369;SDS011;60343;-32.030;115.880;2022-12-19T12:27:45;2.97;;;0.52;;
72369;SDS011;60343;-32.030;115.880;2022-12-19T12:30:25;5.30;;;0.70;;
72369;SDS011;60343;-32.030;115.880;2022-12-19T12:33:02;4.85;;;0.60;;
72369;SDS011;60343;-32.030;115.880;2022-12-19T12:35:43;5.93;;;0.60;;
72369;SDS011;60343;-32.030;115.880;2022-12-19T12:41:02;4.65;;;0.52;;
72369;SDS011;60343;-32.030;115.880;2022-12-19T12:43:42;4.88;;;0.52;;
72369;SDS011;60343;-32.030;115.880;2022-12-19T12:46:26;3.97;;;0.60;;
72369;SDS011;60343;-32.030;115.880;2022-12-19T12:49:03;3.05;;;0.73;;
72369;SDS011;60343;-32.030;115.880;2022-12-19T12:51:31;2.45;;;0.60;;
72369;SDS011;60343;-32.030;115.880;2022-12-19T12:54:00;10.32;;;1.05;;
72369;SDS011;60343;-32.030;115.880;2022-12-19T12:56:36;5.72;;;0.50;;
72369;SDS011;60343;-32.030;115.880;2022-12-19T12:59:18;4.95;;;0.88;;
72369;SDS011;60343;-32.030;115.880;2022-12-19T13:01:50;4.80;;;0.60;;
72369;SDS011;60343;-32.030;115.880;2022-12-19T13:04:23;2.90;;;0.55;;
72369;SDS011;60343;-32.030;115.880;2022-12-19T13:07:10;5.15;;;0.75;;
72369;SDS011;60343;-32.030;115.880;2022-12-19T13:09:51;3.20;;;0.60;;
72369;SDS011;60343;-32.030;115.880;2022-12-19T13:12:40;5.38;;;0.68;;
72369;SDS011;60343;-32.030;115.880;2022-12-19T13:15:34;5.28;;;0.60;;
72369;SDS011;60343;-32.030;115.880;2022-12-19T13:18:08;7.60;;;0.90;;
72369;SDS011;60343;-32.030;115.880;2022-12-19T13:21:01;4.47;;;0.70;;
72369;SDS011;60343;-32.030;115.880;2022-12-19T13:26:19;2.53;;;0.50;;
72369;SDS011;60343;-32.030;115.880;2022-12-19T13:32:07;2.53;;;0.55;;
72369;SDS011;60343;-32.030;115.880;2022-12-19T13:34:36;4.93;;;0.85;;
72369;SDS011;60343;-32.030;115.880;2022-12-19T13:39:58;5.20;;;0.73;;
72369;SDS011;60343;-32.030;115.880;2022-12-19T13:42:46;4.15;;;0.70;;
72369;SDS011;60343;-32.030;115.880;2022-12-19T13:45:29;4.95;;;0.82;;
72369;SDS011;60343;-32.030;115.880;2022-12-19T13:48:00;4.78;;;0.63;;
72369;SDS011;60343;-32.030;115.880;2022-12-19T13:50:30;4.88;;;0.50;;
72369;SDS011;60343;-32.030;115.880;2022-12-19T13:53:07;2.22;;;0.50;;
72369;SDS011;60343;-32.030;115.880;2022-12-19T13:55:39;3.50;;;0.75;;
72369;SDS011;60343;-32.030;115.880;2022-12-19T13:58:13;4.50;;;0.77;;
72369;SDS011;60343;-32.030;115.880;2022-12-19T14:00:55;3.38;;;0.60;;
72369;SDS011;60343;-32.030;115.880;2022-12-19T14:03:31;4.38;;;0.90;;
72369;SDS011;60343;-32.030;115.880;2022-12-19T14:06:08;4.07;;;0.60;;
72369;SDS011;60343;-32.030;115.880;2022-12-19T14:08:43;5.10;;;0.90;;
72369;SDS011;60343;-32.030;115.880;2022-12-19T14:11:14;3.88;;;0.60;;
72369;SDS011;60343;-32.030;115.880;2022-12-19T14:13:45;5.43;;;0.70;;
72369;SDS011;60343;-32.030;115.880;2022-12-19T14:16:22;6.20;;;0.47;;
72369;SDS011;60343;-32.030;115.880;2022-12-19T14:18:49;3.15;;;0.55;;
72369;SDS011;60343;-32.030;115.880;2022-12-19T14:21:17;3.20;;;0.65;;
72369;SDS011;60343;-32.030;115.880;2022-12-19T14:23:47;3.80;;;0.65;;
72369;SDS011;60343;-32.030;115.880;2022-12-19T14:26:17;3.92;;;0.70;;
72369;SDS011;60343;-32.030;115.880;2022-12-19T14:28:51;5.93;;;0.60;;
72369;SDS011;60343;-32.030;115.880;2022-12-19T14:31:30;4.32;;;0.60;;
72369;SDS011;60343;-32.030;115.880;2022-12-19T14:34:01;2.22;;;0.60;;
72369;SDS011;60343;-32.030;115.880;2022-12-19T14:36:30;3.80;;;0.52;;
72369;SDS011;60343;-32.030;115.880;2022-12-19T14:38:59;2.55;;;0.40;;
72369;SDS011;60343;-32.030;115.880;2022-12-19T14:41:37;3.25;;;0.50;;
72369;SDS011;60343;-32.030;115.880;2022-12-19T14:44:07;3.63;;;0.60;;
72369;SDS011;60343;-32.030;115.880;2022-12-19T14:46:40;8.65;;;0.70;;
72369;SDS011;60343;-32.030;115.880;2022-12-19T14:49:21;5.75;;;0.90;;
72369;SDS011;60343;-32.030;115.880;2022-12-19T14:51:50;7.60;;;0.73;;
72369;SDS011;60343;-32.030;115.880;2022-12-19T14:54:19;3.35;;;0.60;;
72369;SDS011;60343;-32.030;115.880;2022-12-19T14:56:48;3.63;;;0.55;;
72369;SDS011;60343;-32.030;115.880;2022-12-19T15:02:21;4.10;;;0.68;;
72369;SDS011;60343;-32.030;115.880;2022-12-19T15:04:59;6.82;;;0.80;;
72369;SDS011;60343;-32.030;115.880;2022-12-19T15:07:31;3.35;;;0.50;;
72369;SDS011;60343;-32.030;115.880;2022-12-19T15:10:00;3.78;;;0.55;;
72369;SDS011;60343;-32.030;115.880;2022-12-19T15:12:33;1.90;;;0.45;;
72369;SDS011;60343;-32.030;115.880;2022-12-19T15:15:17;1.15;;;0.30;;
72369;SDS011;60343;-32.030;115.880;2022-12-19T15:17:52;2.63;;;0.47;;
72369;SDS011;60343;-32.030;115.880;2022-12-19T15:20:21;5.57;;;0.65;;